Current Weather

La Porte Muni

La Porte, Indiana (KPPO)

Report from: Wednesday, August 17, 2022 8:55 PM CDT
Current time: Wednesday, August 17, 2022 9:32 PM CDT

Nearby weather
Weather history
Weather forecast

Temperature18.5°C (65.3°F)
Dew point18.0°C (64.4°F)
Winds 6 kts (3.1 m/s, 6.9 mph) North (10°)
Visibility10 mi. (16.1 km)
Clouds Sky clear
Altimeter30.09 in.Hg (1019 mB)
Relative humidity97 %
Density altitude500 ft. (152 m)
Remarks Fully automated report
Automated weather observing station with precipitation discriminator
Flight conditions Visual Meteorological Conditions
Raw dataKPPO 180155Z AUTO 01006KT 10SM CLR 19/18 A3009 RMK AO2 T01850180
An error has occurred. This application may no longer respond until reloaded. Reload 🗙